NSFA

Details ICAO NSFA (APW)
Name Faleolo International
Region American Samoa
Timezone Pacific/Apia (UTC+14.0)
Plans Departing 88
Arriving 101
Stats Elevation 58 ft / 18 m (AMSL)
Location -13.830000° -172.008000°
Runways 1
Magnetic Variation 11.690° E
Sunrise 2018-10-15 17:02:48 UTC / 2018-10-16 07:02:48 Local
Sunset 2018-10-16 05:26:56 UTC / 2018-10-16 19:26:56 Local
Advertisement - Login to hide

Runways

ID Width Length Bearing (true/mag) Surface Threshold Overrun Markings Lighting
08 148 ft / 45 m 9,829 ft / 2,996 m 89.34° / 77.65° ASPHALT 0 ft / 0 m 502 ft / 153 m APP EDGE THRESHOLD REIL-OMNI
26 148 ft / 45 m 9,829 ft / 2,996 m 269.33° / 257.64° ASPHALT 0 ft / 0 m 0 ft / 0 m APP EDGE THRESHOLD REIL-OMNI

Approach Navaids

Runway Type Ident Frequency Range Bearing (true/mag) Slope Elevation
08 DME IAP 109.90 MHz 18 nm / 33 km - - 58 ft / 18 m (AMSL)
08 LOC-ILS IAP 109.90 MHz 18 nm / 33 km 89.50° / 77.81° - 9 ft / 3 m (AMSL)
08 GS IAP 109.90 MHz 10 nm / 19 km 89.60° / 77.91° 3.00° 58 ft / 18 m (AMSL)

Map

Weather


0- 5 10 15 20 25 30 35+ Temperature / °C

Clouds and Precipitation
Forecast for 2018-10-16 00:00 UTC. Updated 4 hours ago

Ground ~20,000 ft ~40,000 ft Winds

METAR

NSFA 160100Z 04013KT 9999 FEW026 SCT280 33/25 Q1012

TAF

TAF NSFA 152310Z 1600/1624 07009KT 9999 SCT020 SCT045

Frequencies

Tower 118.10 MHz
Warning: Do not use this data for real-world aviation or navigation. No guarantee of current accuracy is given.